createdAt,value
2019-05-30T00:00:07.742Z,94633.09
2019-05-30T00:02:25.338Z,94638.30
2019-05-30T00:04:54.078Z,94632.00
2019-05-30T00:07:22.518Z,94633.30
2019-05-30T00:09:50.914Z,94635.16
2019-05-30T00:12:19.325Z,94631.47
2019-05-30T00:14:48.028Z,94635.09
2019-05-30T00:17:16.351Z,94637.66
2019-05-30T00:19:44.745Z,94637.36
2019-05-30T00:22:13.130Z,94628.97
2019-05-30T00:24:41.523Z,94624.99
2019-05-30T00:27:09.931Z,94627.29
2019-05-30T00:29:38.309Z,94633.27
2019-05-30T00:32:07.838Z,94634.29
2019-05-30T00:34:36.240Z,94635.58
2019-05-30T00:37:05.954Z,94635.58
2019-05-30T00:39:34.475Z,94632.74
2019-05-30T00:42:04.104Z,94631.94
2019-05-30T00:44:32.645Z,94627.52
2019-05-30T00:47:02.322Z,94632.74
2019-05-30T00:49:32.052Z,94633.48
2019-05-30T00:52:00.613Z,94634.77
2019-05-30T00:54:29.254Z,94628.97
2019-05-30T00:56:58.586Z,94630.22
2019-05-30T00:59:27.212Z,94632.44
2019-05-30T01:01:56.619Z,94631.31
2019-05-30T01:04:25.023Z,94634.14
2019-05-30T01:06:53.419Z,94626.20
2019-05-30T01:09:21.827Z,94622.80
2019-05-30T01:11:50.283Z,94628.02
2019-05-30T01:14:18.921Z,94623.75
2019-05-30T01:16:47.325Z,94620.84
2019-05-30T01:19:15.942Z,94622.30
2019-05-30T01:21:44.776Z,94625.09
2019-05-30T01:24:13.411Z,94624.80
2019-05-30T01:26:42.063Z,94620.25
2019-05-30T01:29:10.698Z,94624.36
2019-05-30T01:31:39.103Z,94622.93
2019-05-30T01:34:07.982Z,94624.20
2019-05-30T01:36:36.413Z,94623.91
2019-05-30T01:39:07.994Z,94626.17
2019-05-30T01:41:36.608Z,94629.13
2019-05-30T01:44:06.106Z,94632.39
2019-05-30T01:46:34.548Z,94626.84
2019-05-30T01:49:04.296Z,94628.83
2019-05-30T01:51:33.013Z,94627.34
2019-05-30T01:54:02.567Z,94631.70
2019-05-30T01:56:30.932Z,94638.44
2019-05-30T01:59:00.360Z,94635.10
2019-05-30T02:01:28.998Z,94627.48
2019-05-30T02:03:58.893Z,94628.97
2019-05-30T02:06:27.696Z,94628.94
2019-05-30T02:08:56.129Z,94626.25
2019-05-30T02:11:24.759Z,94632.70
2019-05-30T02:13:53.391Z,94635.53
2019-05-30T02:16:22.056Z,94630.06
2019-05-30T02:18:50.410Z,94629.48
2019-05-30T02:21:18.790Z,94628.59
2019-05-30T02:23:47.455Z,94631.38
2019-05-30T02:26:16.102Z,94627.69
2019-05-30T02:28:44.495Z,94631.28
2019-05-30T02:31:13.195Z,94633.56
2019-05-30T02:33:41.606Z,94634.74
2019-05-30T02:36:12.332Z,94632.59
2019-05-30T02:38:40.359Z,94638.47
2019-05-30T02:41:10.024Z,94626.30
2019-05-30T02:43:39.106Z,94633.24
2019-05-30T02:46:08.446Z,94640.50
2019-05-30T02:48:57.289Z,94638.13
2019-05-30T02:51:10.095Z,94642.16
2019-05-30T02:53:38.073Z,94636.31
2019-05-30T02:56:07.918Z,94637.46
2019-05-30T02:58:36.725Z,94640.71
2019-05-30T03:01:07.061Z,94647.41
2019-05-30T03:03:35.302Z,94652.51
2019-05-30T03:06:06.271Z,94645.69
2019-05-30T03:08:34.472Z,94652.18
2019-05-30T03:11:04.466Z,94650.83
2019-05-30T03:13:33.111Z,94649.15
2019-05-30T03:16:02.155Z,94652.12
2019-05-30T03:18:31.309Z,94657.20
2019-05-30T03:20:59.939Z,94664.94
2019-05-30T03:23:28.336Z,94658.34
2019-05-30T03:25:56.792Z,94657.52
2019-05-30T03:28:25.455Z,94660.83
2019-05-30T03:30:54.424Z,94662.48
2019-05-30T03:33:38.054Z,94663.78
2019-05-30T03:35:53.253Z,94666.88
2019-05-30T03:38:21.592Z,94672.34
2019-05-30T03:40:50.458Z,94677.90
2019-05-30T03:43:18.913Z,94682.90
2019-05-30T03:45:47.833Z,94683.81
2019-05-30T03:48:18.310Z,94683.17
2019-05-30T03:50:49.965Z,94683.28
2019-05-30T03:53:18.951Z,94685.47
2019-05-30T03:55:50.384Z,94688.39
2019-05-30T03:58:22.073Z,94685.84
2019-05-30T04:00:53.513Z,94683.36
2019-05-30T04:03:30.507Z,94683.73
2019-05-30T04:06:01.944Z,94688.89
2019-05-30T04:08:33.459Z,94689.27
2019-05-30T04:11:04.887Z,94691.48
2019-05-30T04:13:39.232Z,94691.27
2019-05-30T04:16:08.666Z,94690.88
2019-05-30T04:18:37.168Z,94698.47
2019-05-30T04:21:05.627Z,94691.05
2019-05-30T04:23:34.043Z,94689.34
2019-05-30T04:26:02.696Z,94686.86
2019-05-30T04:28:31.064Z,94696.28
2019-05-30T04:30:59.469Z,94701.84
2019-05-30T04:33:33.174Z,94693.67
2019-05-30T04:35:57.984Z,94700.50
2019-05-30T04:38:26.386Z,94703.51
2019-05-30T04:40:55.316Z,94696.52
2019-05-30T04:43:23.963Z,94701.00
2019-05-30T04:45:52.367Z,94704.01
2019-05-30T04:48:21.413Z,94706.88
2019-05-30T04:50:50.224Z,94707.24
2019-05-30T04:53:20.719Z,94703.87
2019-05-30T04:55:48.980Z,94708.24
2019-05-30T04:58:18.696Z,94707.56
2019-05-30T05:00:47.551Z,94701.41
2019-05-30T05:03:19.081Z,94702.58
2019-05-30T05:05:46.305Z,94708.80
2019-05-30T05:08:15.832Z,94705.64
2019-05-30T05:10:44.814Z,94709.98
2019-05-30T05:13:14.123Z,94711.73
2019-05-30T05:15:42.535Z,94706.22
2019-05-30T05:18:12.809Z,94714.14
2019-05-30T05:20:41.583Z,94710.67
2019-05-30T05:23:09.972Z,94714.69
2019-05-30T05:25:38.367Z,94710.41
2019-05-30T05:28:06.742Z,94709.76
2019-05-30T05:30:35.140Z,94710.14
2019-05-30T05:33:03.536Z,94715.36
2019-05-30T05:35:32.185Z,94714.23
2019-05-30T05:38:00.820Z,94716.39
2019-05-30T05:40:29.448Z,94721.72
2019-05-30T05:42:57.867Z,94721.95
2019-05-30T05:45:26.255Z,94729.20
2019-05-30T05:47:54.650Z,94727.95
2019-05-30T05:50:23.047Z,94726.23
2019-05-30T05:52:51.437Z,94735.73
2019-05-30T05:55:20.895Z,94734.98
2019-05-30T05:57:49.237Z,94737.92
2019-05-30T06:00:19.166Z,94740.75
2019-05-30T06:02:47.799Z,94739.76
2019-05-30T06:05:16.252Z,94742.19
2019-05-30T06:07:44.642Z,94734.98
2019-05-30T06:10:13.255Z,94737.89
2019-05-30T06:12:41.656Z,94746.55
2019-05-30T06:15:10.346Z,94750.55
2019-05-30T06:17:38.743Z,94748.77
2019-05-30T06:20:07.656Z,94750.42
2019-05-30T06:22:36.172Z,94743.38
2019-05-30T06:25:06.097Z,94749.16
2019-05-30T06:27:34.730Z,94749.76
2019-05-30T06:30:04.456Z,94747.99
2019-05-30T06:32:33.093Z,94748.50
2019-05-30T06:35:01.479Z,94749.31
2019-05-30T06:37:29.885Z,94749.31
2019-05-30T06:39:58.269Z,94749.58
2019-05-30T06:42:28.153Z,94754.59
2019-05-30T06:44:56.617Z,94749.86
2019-05-30T06:47:26.259Z,94750.13
2019-05-30T06:49:54.691Z,94747.57
2019-05-30T06:52:23.162Z,94749.93
2019-05-30T06:54:51.578Z,94753.08
2019-05-30T06:57:21.109Z,94759.41
2019-05-30T06:59:49.545Z,94754.72
2019-05-30T07:02:18.205Z,94756.30
2019-05-30T07:04:51.597Z,94755.52
2019-05-30T07:07:16.852Z,94756.81
2019-05-30T07:09:45.349Z,94757.09
2019-05-30T07:12:13.992Z,94761.80
2019-05-30T07:14:42.383Z,94763.13
2019-05-30T07:17:11.335Z,94761.81
2019-05-30T07:19:39.973Z,94768.38
2019-05-30T07:22:08.377Z,94767.83
2019-05-30T07:24:36.764Z,94772.57
2019-05-30T07:27:05.169Z,94769.14
2019-05-30T07:29:34.268Z,94772.57
2019-05-30T07:32:02.625Z,94778.08
2019-05-30T07:34:32.143Z,94781.47
2019-05-30T07:37:00.803Z,94780.13
2019-05-30T07:39:31.653Z,94777.20
2019-05-30T07:42:06.195Z,94777.20
2019-05-30T07:44:30.788Z,94778.50
2019-05-30T07:46:59.255Z,94781.66
2019-05-30T07:49:28.255Z,94782.91
2019-05-30T07:51:56.662Z,94780.75
2019-05-30T07:54:25.336Z,94781.56
2019-05-30T07:56:54.087Z,94781.30
2019-05-30T07:59:22.529Z,94781.83
2019-05-30T08:01:51.197Z,94775.48
2019-05-30T08:04:20.089Z,94777.54
2019-05-30T08:06:48.513Z,94780.97
2019-05-30T08:09:16.899Z,94781.45
2019-05-30T08:11:45.309Z,94781.44
2019-05-30T08:14:13.703Z,94785.89
2019-05-30T08:16:42.360Z,94781.70
2019-05-30T08:19:11.063Z,94783.78
2019-05-30T08:21:39.453Z,94774.21
2019-05-30T08:24:07.851Z,94778.91
2019-05-30T08:26:36.453Z,94772.64
2019-05-30T08:29:04.901Z,94779.70
2019-05-30T08:31:34.515Z,94774.09
2019-05-30T08:34:02.960Z,94772.39
2019-05-30T08:36:31.344Z,94775.20
2019-05-30T08:38:59.734Z,94776.45
2019-05-30T08:41:29.121Z,94775.59
2019-05-30T08:43:57.495Z,94774.66
2019-05-30T08:46:25.887Z,94767.91
2019-05-30T08:48:54.290Z,94776.12
2019-05-30T08:51:22.675Z,94770.03
2019-05-30T08:53:51.319Z,94775.92
2019-05-30T08:56:19.705Z,94770.73
2019-05-30T08:58:48.340Z,94776.22
2019-05-30T09:01:16.959Z,94776.89
2019-05-30T09:03:46.260Z,94777.05
2019-05-30T09:06:14.910Z,94775.81
2019-05-30T09:08:44.261Z,94773.88
2019-05-30T09:11:12.883Z,94769.41
2019-05-30T09:13:42.518Z,94774.68
2019-05-30T09:16:11.045Z,94768.59
2019-05-30T09:18:40.284Z,94765.05
2019-05-30T09:21:09.569Z,94764.21
2019-05-30T09:23:39.095Z,94765.21
2019-05-30T09:26:08.062Z,94765.30
2019-05-30T09:28:36.458Z,94769.19
2019-05-30T09:31:05.089Z,94763.52
2019-05-30T09:33:33.486Z,94757.73
2019-05-30T09:36:12.554Z,94762.41
2019-05-30T09:38:32.273Z,94762.55
2019-05-30T09:41:00.909Z,94760.20
2019-05-30T09:43:29.299Z,94764.06
2019-05-30T09:45:57.861Z,94758.45
2019-05-30T09:48:26.248Z,94753.17
2019-05-30T09:50:54.647Z,94749.83
2019-05-30T09:53:23.309Z,94752.09
2019-05-30T09:55:53.050Z,94753.94
2019-05-30T09:58:21.420Z,94752.55
2019-05-30T10:00:50.437Z,94750.37
2019-05-30T10:03:19.072Z,94753.38
2019-05-30T10:05:48.636Z,94751.28
2019-05-30T10:08:17.362Z,94743.05
2019-05-30T10:10:47.660Z,94744.22
2019-05-30T10:13:15.855Z,94734.91
2019-05-30T10:15:45.436Z,94737.80
2019-05-30T10:18:14.356Z,94735.22
2019-05-30T10:20:42.994Z,94741.63
2019-05-30T10:23:11.625Z,94743.21
2019-05-30T10:25:40.024Z,94738.94
2019-05-30T10:28:08.473Z,94739.80
2019-05-30T10:30:36.865Z,94740.53
2019-05-30T10:33:05.322Z,94736.50
2019-05-30T10:35:33.757Z,94729.79
2019-05-30T10:38:02.387Z,94730.33
2019-05-30T10:40:32.242Z,94733.70
2019-05-30T10:43:00.644Z,94736.64
2019-05-30T10:45:29.402Z,94737.55
2019-05-30T10:47:57.791Z,94735.47
2019-05-30T10:50:26.311Z,94735.16
2019-05-30T10:52:55.642Z,94734.41
2019-05-30T11:07:16.219Z,94727.52
2019-05-30T11:09:48.701Z,94726.72
2019-05-30T11:12:17.350Z,94719.55
2019-05-30T11:14:46.816Z,94720.63
2019-05-30T11:17:15.919Z,94721.20
2019-05-30T11:19:44.315Z,94718.06
2019-05-30T11:22:12.741Z,94718.23
2019-05-30T11:24:41.115Z,94713.68
2019-05-30T11:27:09.510Z,94718.80
2019-05-30T11:29:37.891Z,94716.47
2019-05-30T11:32:06.288Z,94716.38
2019-05-30T11:34:34.675Z,94712.54
2019-05-30T11:37:18.308Z,94717.45
2019-05-30T11:39:33.438Z,94713.41
2019-05-30T11:42:01.831Z,94710.66
2019-05-30T11:44:30.202Z,94708.12
2019-05-30T11:46:59.827Z,94707.86
2019-05-30T11:49:28.390Z,94710.89
2019-05-30T11:51:57.898Z,94703.98
2019-05-30T11:54:26.264Z,94704.68
2019-05-30T11:56:54.640Z,94705.33
2019-05-30T11:59:23.027Z,94703.59
2019-05-30T12:01:52.902Z,94706.06
2019-05-30T12:04:21.945Z,94709.37
2019-05-30T12:06:51.046Z,94708.37
2019-05-30T12:09:20.155Z,94710.67
2019-05-30T12:11:48.533Z,94698.16
2019-05-30T12:14:16.921Z,94707.86
2019-05-30T12:16:45.586Z,94701.66
2019-05-30T12:19:13.985Z,94700.48
2019-05-30T12:21:42.361Z,94704.09
2019-05-30T12:24:10.747Z,94702.30
2019-05-30T12:26:39.380Z,94702.98
2019-05-30T12:29:07.781Z,94701.84
2019-05-30T12:31:36.179Z,94692.75
2019-05-30T12:34:04.817Z,94690.27
2019-05-30T12:36:33.218Z,94687.89
2019-05-30T12:39:02.658Z,94690.52
2019-05-30T12:41:31.179Z,94688.23
2019-05-30T12:43:59.561Z,94686.42
2019-05-30T12:46:27.960Z,94688.59
2019-05-30T12:48:57.325Z,94687.77
2019-05-30T12:51:25.964Z,94693.37
2019-05-30T12:53:54.396Z,94692.97
2019-05-30T12:56:22.988Z,94698.84
2019-05-30T12:58:51.416Z,94692.88
2019-05-30T13:01:19.809Z,94690.74
2019-05-30T13:03:48.195Z,94696.44
2019-05-30T13:06:16.590Z,94696.22
2019-05-30T13:08:44.972Z,94696.91
2019-05-30T13:11:13.371Z,94692.74
2019-05-30T13:13:42.004Z,94687.73
2019-05-30T13:16:10.648Z,94689.05
2019-05-30T13:18:39.042Z,94689.03
2019-05-30T13:21:07.421Z,94687.61
2019-05-30T13:23:35.917Z,94686.20
2019-05-30T13:26:05.806Z,94677.38
2019-05-30T13:28:34.359Z,94679.40
2019-05-30T13:31:02.705Z,94680.41
2019-05-30T13:33:31.152Z,94678.66
2019-05-30T13:36:00.916Z,94677.16
2019-05-30T13:38:29.652Z,94675.64
2019-05-30T13:40:59.297Z,94671.27
2019-05-30T13:43:28.193Z,94670.00
2019-05-30T13:45:56.537Z,94671.28
2019-05-30T13:48:25.175Z,94674.70
2019-05-30T13:50:53.808Z,94680.01
2019-05-30T13:53:22.448Z,94677.48
2019-05-30T13:55:51.081Z,94681.28
2019-05-30T13:58:19.500Z,94679.03
2019-05-30T14:00:47.866Z,94680.34
2019-05-30T14:03:16.263Z,94678.46
2019-05-30T14:05:44.641Z,94677.53
2019-05-30T14:08:16.379Z,94680.75
2019-05-30T14:10:43.151Z,94681.90
2019-05-30T14:13:11.539Z,94676.64
2019-05-30T14:15:39.922Z,94675.52
2019-05-30T14:18:09.082Z,94667.99
2019-05-30T14:20:37.479Z,94660.21
2019-05-30T14:23:07.291Z,94663.41
2019-05-30T14:25:35.923Z,94672.33
2019-05-30T14:28:05.581Z,94675.58
2019-05-30T14:30:34.050Z,94667.23
2019-05-30T14:33:02.445Z,94676.59
2019-05-30T14:35:30.820Z,94671.25
2019-05-30T14:37:59.207Z,94678.36
2019-05-30T14:40:27.973Z,94675.80
2019-05-30T14:42:56.359Z,94679.74
2019-05-30T14:45:27.785Z,94680.42
2019-05-30T14:47:55.332Z,94678.37
2019-05-30T14:50:24.205Z,94677.08
2019-05-30T14:52:52.606Z,94678.45
2019-05-30T14:55:21.223Z,94682.40
2019-05-30T14:57:49.861Z,94688.83
2019-05-30T15:00:18.732Z,94686.66
2019-05-30T15:02:47.861Z,94686.45
2019-05-30T15:05:16.494Z,94687.76
2019-05-30T15:07:44.869Z,94688.45
2019-05-30T15:10:13.784Z,94692.67
2019-05-30T15:12:42.309Z,94689.34
2019-05-30T15:15:14.480Z,94684.86
2019-05-30T15:17:41.468Z,94686.09
2019-05-30T15:20:13.683Z,94690.30
2019-05-30T15:22:42.226Z,94686.33
2019-05-30T15:25:12.069Z,94688.98
2019-05-30T15:27:41.296Z,94684.48
2019-05-30T15:30:12.692Z,94688.09
2019-05-30T15:32:41.378Z,94688.09
2019-05-30T15:35:10.987Z,94684.00
2019-05-30T15:37:40.903Z,94687.27
2019-05-30T15:40:10.968Z,94689.47
2019-05-30T15:42:39.376Z,94687.05
2019-05-30T15:45:10.082Z,94676.56
2019-05-30T15:47:38.750Z,94677.97
2019-05-30T15:50:08.326Z,94683.06
2019-05-30T15:52:37.019Z,94681.50
2019-05-30T15:55:07.242Z,94673.36
2019-05-30T15:57:35.627Z,94678.83
2019-05-30T16:00:07.459Z,94681.83
2019-05-30T16:02:35.841Z,94676.77
2019-05-30T16:05:06.279Z,94682.45
2019-05-30T16:07:34.662Z,94684.41
2019-05-30T16:10:04.859Z,94677.12
2019-05-30T16:12:33.489Z,94675.28
2019-05-30T16:15:02.116Z,94682.91
2019-05-30T16:17:30.752Z,94678.63
2019-05-30T16:19:59.148Z,94673.50
2019-05-30T16:22:27.784Z,94683.41
2019-05-30T16:24:56.178Z,94678.22
2019-05-30T16:27:24.557Z,94673.77
2019-05-30T16:29:52.942Z,94681.93
2019-05-30T16:32:22.199Z,94679.89
2019-05-30T16:34:50.560Z,94679.52
2019-05-30T16:37:20.094Z,94675.36
2019-05-30T16:40:04.378Z,94677.53
2019-05-30T16:42:18.845Z,94675.38
2019-05-30T16:44:47.241Z,94676.48
2019-05-30T16:47:16.551Z,94674.59
2019-05-30T16:49:45.013Z,94677.13
2019-05-30T16:52:14.700Z,94672.53
2019-05-30T16:54:43.346Z,94681.83
2019-05-30T16:57:11.734Z,94681.27
2019-05-30T16:59:40.356Z,94684.00
2019-05-30T17:02:08.985Z,94686.09
2019-05-30T17:04:37.423Z,94692.44
2019-05-30T17:07:05.847Z,94686.50
2019-05-30T17:09:34.478Z,94693.52
2019-05-30T17:12:02.886Z,94689.16
2019-05-30T17:14:31.285Z,94692.43
2019-05-30T17:17:02.709Z,94685.80
2019-05-30T17:19:29.957Z,94683.44
2019-05-30T17:21:58.350Z,94690.67
2019-05-30T17:24:27.288Z,94691.73
2019-05-30T17:26:55.797Z,94685.41
2019-05-30T17:29:24.187Z,94684.64
2019-05-30T17:31:52.575Z,94682.19
2019-05-30T17:34:21.822Z,94686.81
2019-05-30T17:36:50.238Z,94687.53
2019-05-30T17:39:18.956Z,94692.76
2019-05-30T17:41:47.317Z,94692.80
2019-05-30T17:44:15.927Z,94700.25
2019-05-30T17:46:44.328Z,94700.16
2019-05-30T17:49:12.820Z,94707.06
2019-05-30T17:51:41.198Z,94703.19
2019-05-30T17:54:09.572Z,94711.54
2019-05-30T17:56:37.931Z,94704.97
2019-05-30T17:59:06.335Z,94711.14
2019-05-30T18:01:34.726Z,94715.01
2019-05-30T18:04:03.119Z,94711.77
2019-05-30T18:06:31.507Z,94713.78
2019-05-30T18:08:59.928Z,94719.13
2019-05-30T18:11:29.015Z,94716.92
2019-05-30T18:13:57.449Z,94713.65
2019-05-30T18:16:27.087Z,94723.57
2019-05-30T18:18:55.515Z,94720.92
2019-05-30T18:21:23.915Z,94725.32
2019-05-30T18:23:52.299Z,94725.58
2019-05-30T18:26:21.457Z,94721.89
2019-05-30T18:28:49.876Z,94724.35
2019-05-30T18:31:18.268Z,94725.23
2019-05-30T18:33:46.652Z,94724.55
2019-05-30T18:36:15.035Z,94726.22
2019-05-30T18:38:43.438Z,94732.11
2019-05-30T18:41:15.843Z,94731.59
2019-05-30T18:43:41.944Z,94740.01
2019-05-30T18:46:10.348Z,94738.86
2019-05-30T18:48:38.894Z,94739.94
2019-05-30T18:51:07.346Z,94747.53
2019-05-30T18:53:36.707Z,94744.05
2019-05-30T18:56:06.530Z,94738.45
2019-05-30T18:58:34.871Z,94739.12
2019-05-30T19:01:03.493Z,94747.73
2019-05-30T19:03:33.336Z,94747.94
2019-05-30T19:06:01.805Z,94743.04
2019-05-30T19:08:30.215Z,94749.22
2019-05-30T19:10:58.634Z,94748.27
2019-05-30T19:13:27.038Z,94742.68
2019-05-30T19:15:55.581Z,94741.17
2019-05-30T19:18:25.268Z,94748.92
2019-05-30T19:20:53.791Z,94749.03
2019-05-30T19:23:22.202Z,94753.59
2019-05-30T19:25:50.809Z,94757.86
2019-05-30T19:28:19.210Z,94762.41
2019-05-30T19:30:47.899Z,94769.02
2019-05-30T19:33:20.371Z,94764.59
2019-05-30T19:35:49.445Z,94769.92
2019-05-30T19:38:16.577Z,94777.34
2019-05-30T19:40:45.196Z,94778.94
2019-05-30T19:43:13.702Z,94783.70
2019-05-30T19:45:42.101Z,94782.66
2019-05-30T19:48:10.526Z,94788.71
2019-05-30T19:50:38.972Z,94790.58
2019-05-30T19:53:07.360Z,94793.73
2019-05-30T19:55:35.782Z,94793.20
2019-05-30T19:58:04.560Z,94796.88
2019-05-30T20:00:35.360Z,94795.32
2019-05-30T20:03:03.181Z,94800.84
2019-05-30T20:05:32.565Z,94803.75
2019-05-30T20:08:00.970Z,94801.39
2019-05-30T20:10:30.673Z,94799.05
2019-05-30T20:12:59.243Z,94800.90
2019-05-30T20:15:29.315Z,94808.51
2019-05-30T20:18:00.451Z,94812.16
2019-05-30T20:20:28.836Z,94815.81
2019-05-30T20:22:57.318Z,94812.68
2019-05-30T20:25:25.891Z,94815.02
2019-05-30T20:27:54.339Z,94819.73
2019-05-30T20:30:24.239Z,94824.94
2019-05-30T20:32:52.681Z,94820.73
2019-05-30T20:35:21.164Z,94820.97
2019-05-30T20:37:49.583Z,94830.64
2019-05-30T20:40:18.834Z,94831.16
2019-05-30T20:42:47.522Z,94829.56
2019-05-30T20:45:16.224Z,94828.72
2019-05-30T20:47:44.640Z,94830.81
2019-05-30T20:50:15.054Z,94835.77
2019-05-30T20:52:45.618Z,94830.80
2019-05-30T20:55:14.698Z,94833.66
2019-05-30T20:57:43.127Z,94835.27
2019-05-30T21:00:13.069Z,94839.21
2019-05-30T21:02:43.514Z,94847.84
2019-05-30T21:05:12.155Z,94843.92
2019-05-30T21:07:44.325Z,94848.96
2019-05-30T21:10:14.721Z,94845.06
2019-05-30T21:12:46.880Z,94846.16
2019-05-30T21:15:14.954Z,94850.34
2019-05-30T21:17:46.164Z,94848.52
2019-05-30T21:20:15.147Z,94847.98
2019-05-30T21:22:44.646Z,94845.38
2019-05-30T21:25:13.440Z,94846.97
2019-05-30T21:27:43.037Z,94857.20
2019-05-30T21:30:11.902Z,94850.91
2019-05-30T21:32:41.701Z,94854.61
2019-05-30T21:35:10.953Z,94854.33
2019-05-30T21:37:39.721Z,94852.52
2019-05-30T21:40:08.416Z,94854.89
2019-05-30T21:42:51.509Z,94853.32
2019-05-30T21:45:08.185Z,94853.85
2019-05-30T21:47:36.605Z,94849.66
2019-05-30T21:50:08.224Z,94847.84
2019-05-30T21:52:36.725Z,94847.05
2019-05-30T21:55:08.616Z,94844.95
2019-05-30T21:57:37.086Z,94851.00
2019-05-30T22:00:14.199Z,94852.82
2019-05-30T22:02:46.636Z,94844.19
2019-05-30T22:05:15.231Z,94849.41
2019-05-30T22:07:44.974Z,94849.16
2019-05-30T22:10:13.585Z,94848.11
2019-05-30T22:12:42.053Z,94846.28
2019-05-30T22:15:10.586Z,94850.98
2019-05-30T22:17:38.995Z,94849.16
2019-05-30T22:20:07.784Z,94844.17
2019-05-30T22:22:36.204Z,94845.75
2019-05-30T22:25:06.035Z,94849.44
2019-05-30T22:27:34.471Z,94840.77
2019-05-30T22:30:02.965Z,94831.33
2019-05-30T22:32:31.380Z,94828.45
2019-05-30T22:34:59.839Z,94826.88
2019-05-30T22:37:28.231Z,94831.87
2019-05-30T22:39:56.659Z,94823.19
2019-05-30T22:42:25.051Z,94827.66
2019-05-30T22:44:53.453Z,94827.38
2019-05-30T22:47:21.887Z,94835.25
2019-05-30T22:49:50.770Z,94836.05
2019-05-30T22:52:19.203Z,94836.06
2019-05-30T22:54:47.638Z,94832.39
2019-05-30T22:57:16.004Z,94828.16
2019-05-30T22:59:44.741Z,94825.28
2019-05-30T23:02:13.113Z,94829.22
2019-05-30T23:04:41.558Z,94831.59
2019-05-30T23:07:09.961Z,94830.81
2019-05-30T23:09:38.369Z,94840.52
2019-05-30T23:12:06.860Z,94839.72
2019-05-30T23:14:35.261Z,94843.14
2019-05-30T23:17:03.678Z,94841.03
2019-05-30T23:19:32.111Z,94840.77
2019-05-30T23:22:00.523Z,94844.71
2019-05-30T23:24:28.954Z,94843.40
2019-05-30T23:26:57.940Z,94838.95
2019-05-30T23:29:26.384Z,94837.90
2019-05-30T23:31:56.082Z,94837.89
2019-05-30T23:34:24.616Z,94832.13
2019-05-30T23:36:53.017Z,94835.01
2019-05-30T23:39:21.430Z,94834.20
2019-05-30T23:41:51.034Z,94827.91
2019-05-30T23:44:19.635Z,94824.52
2019-05-30T23:46:49.262Z,94817.44
2019-05-30T23:49:17.702Z,94809.81
2019-05-30T23:51:46.127Z,94816.36
2019-05-30T23:54:14.551Z,94815.83
2019-05-30T23:56:42.939Z,94816.38
2019-05-30T23:59:11.371Z,94818.45
